AAY1223 KSFB-KTYS
Flight info
| Callsign | AAY1223 |
|---|---|
| Flight time | 1h 22m |
| Altitude | 32000 |
| Route | WORMS JEEMY ACCHE PAINN SHRKS Q77 TEUFL ODF |
| Aircraft | B38M/M-SDE1FGHILORVWXY/HB1 |
Departure
| Time | 2026-05-05 01:23 |
|---|---|
| Airport | Orlando Sanford International Airport (KSFB) |
Arrival
| Time | 2026-05-05 02:46 |
|---|---|
| Airport | McGhee Tyson Airport (KTYS) |
| Time | Latitude | Longitude | Altitude | Speed | Heading |
|---|---|---|---|---|---|
| 2026-05-05 01:03 | 28.77645 | -81.24629 | 75 ft | 0 kts | 124° |
| 2026-05-05 01:13 | 28.77650 | -81.24637 | 62 ft | 3 kts | 121° |
| 2026-05-05 01:13 | 28.77659 | -81.24657 | 57 ft | 3 kts | 111° |
| 2026-05-05 01:13 | 28.77665 | -81.24679 | 61 ft | 3 kts | 100° |
| 2026-05-05 01:14 | 28.77667 | -81.24701 | 61 ft | 3 kts | 86° |
| 2026-05-05 01:14 | 28.77663 | -81.24723 | 60 ft | 3 kts | 65° |
| 2026-05-05 01:14 | 28.77653 | -81.24739 | 59 ft | 3 kts | 28° |
| 2026-05-05 01:14 | 28.77646 | -81.24743 | 61 ft | 1 kts | 13° |
| 2026-05-05 01:19 | 28.77674 | -81.24738 | 59 ft | 12 kts | 4° |
| 2026-05-05 01:19 | 28.77703 | -81.24736 | 65 ft | 5 kts | 2° |
| 2026-05-05 01:19 | 28.77745 | -81.24731 | 61 ft | 2 kts | 37° |
| 2026-05-05 01:19 | 28.77763 | -81.24668 | 62 ft | 16 kts | 87° |
| 2026-05-05 01:20 | 28.77798 | -81.24543 | 62 ft | 17 kts | 21° |
| 2026-05-05 01:20 | 28.77915 | -81.24535 | 60 ft | 18 kts | 0° |
| 2026-05-05 01:20 | 28.78041 | -81.24555 | 59 ft | 18 kts | 317° |
| 2026-05-05 01:20 | 28.78063 | -81.24683 | 59 ft | 17 kts | 270° |
| 2026-05-05 01:21 | 28.78063 | -81.24827 | 59 ft | 19 kts | 270° |
| 2026-05-05 01:21 | 28.78064 | -81.24977 | 55 ft | 19 kts | 270° |
| 2026-05-05 01:21 | 28.78064 | -81.25131 | 64 ft | 19 kts | 270° |
| 2026-05-05 01:21 | 28.78064 | -81.25280 | 67 ft | 19 kts | 270° |
| 2026-05-05 01:22 | 28.78063 | -81.25428 | 62 ft | 19 kts | 269° |
| 2026-05-05 01:22 | 28.78081 | -81.25565 | 68 ft | 15 kts | 311° |
| 2026-05-05 01:22 | 28.78157 | -81.25572 | 69 ft | 10 kts | 41° |
| 2026-05-05 01:22 | 28.78175 | -81.25499 | 70 ft | 17 kts | 89° |
| 2026-05-05 01:23 | 28.78176 | -81.25016 | 60 ft | 104 kts | 90° |
| 2026-05-05 01:23 | 28.78182 | -81.23909 | 103 ft | 169 kts | 90° |
| 2026-05-05 01:23 | 28.78211 | -81.22453 | 764 ft | 191 kts | 80° |
| 2026-05-05 01:23 | 28.78511 | -81.21092 | 1458 ft | 172 kts | 78° |
| 2026-05-05 01:24 | 28.78790 | -81.19690 | 1619 ft | 189 kts | 77° |
| 2026-05-05 01:24 | 28.79188 | -81.18190 | 1711 ft | 205 kts | 73° |
| 2026-05-05 01:24 | 28.79862 | -81.16744 | 1775 ft | 213 kts | 48° |
| 2026-05-05 01:24 | 28.81208 | -81.15918 | 2010 ft | 233 kts | 12° |
| 2026-05-05 01:25 | 28.82882 | -81.16004 | 2841 ft | 253 kts | 354° |
| 2026-05-05 01:25 | 28.84651 | -81.16325 | 3578 ft | 259 kts | 353° |
| 2026-05-05 01:25 | 28.86434 | -81.16629 | 3811 ft | 258 kts | 353° |
| 2026-05-05 01:25 | 28.88207 | -81.16916 | 3898 ft | 257 kts | 353° |
| 2026-05-05 01:26 | 28.89960 | -81.17186 | 3968 ft | 257 kts | 353° |
| 2026-05-05 01:26 | 28.91737 | -81.17453 | 3990 ft | 257 kts | 353° |
| 2026-05-05 01:26 | 28.93513 | -81.17717 | 4009 ft | 257 kts | 353° |
| 2026-05-05 01:26 | 28.95287 | -81.17980 | 4026 ft | 258 kts | 353° |
| 2026-05-05 01:27 | 28.97002 | -81.18498 | 4731 ft | 253 kts | 327° |
| 2026-05-05 01:27 | 28.98254 | -81.19854 | 5829 ft | 252 kts | 302° |
| 2026-05-05 01:27 | 28.98939 | -81.21717 | 6668 ft | 260 kts | 279° |
| 2026-05-05 01:27 | 28.99183 | -81.23749 | 7670 ft | 260 kts | 278° |
| 2026-05-05 01:28 | 28.99478 | -81.25813 | 8578 ft | 266 kts | 279° |
| 2026-05-05 01:28 | 28.99782 | -81.27906 | 9560 ft | 269 kts | 279° |
| 2026-05-05 01:28 | 29.00093 | -81.30029 | 10436 ft | 273 kts | 279° |
| 2026-05-05 01:28 | 29.00413 | -81.32208 | 10824 ft | 278 kts | 279° |
| 2026-05-05 01:29 | 29.00732 | -81.34383 | 10957 ft | 278 kts | 279° |
| 2026-05-05 01:29 | 29.01282 | -81.36491 | 10983 ft | 277 kts | 298° |
| 2026-05-05 01:29 | 29.02472 | -81.38178 | 11016 ft | 279 kts | 319° |
| 2026-05-05 01:29 | 29.04110 | -81.39394 | 11030 ft | 283 kts | 329° |
| 2026-05-05 01:30 | 29.05885 | -81.40518 | 11375 ft | 300 kts | 330° |
| 2026-05-05 01:30 | 29.07792 | -81.41675 | 11770 ft | 320 kts | 331° |
| 2026-05-05 01:30 | 29.09889 | -81.42719 | 12206 ft | 338 kts | 345° |
| 2026-05-05 01:30 | 29.12253 | -81.43061 | 12881 ft | 346 kts | 353° |
| 2026-05-05 01:31 | 29.14664 | -81.43324 | 13664 ft | 351 kts | 353° |
| 2026-05-05 01:31 | 29.17114 | -81.43574 | 14380 ft | 355 kts | 353° |
| 2026-05-05 01:31 | 29.19587 | -81.43819 | 15068 ft | 358 kts | 353° |
| 2026-05-05 01:31 | 29.22087 | -81.44062 | 15765 ft | 362 kts | 352° |
| 2026-05-05 01:32 | 29.24609 | -81.44304 | 16471 ft | 364 kts | 352° |
| 2026-05-05 01:32 | 29.27152 | -81.44548 | 17116 ft | 368 kts | 352° |
| 2026-05-05 01:32 | 29.29715 | -81.44792 | 17780 ft | 372 kts | 351° |
| 2026-05-05 01:32 | 29.32316 | -81.45040 | 18410 ft | 375 kts | 351° |
| 2026-05-05 01:33 | 29.34896 | -81.45286 | 18975 ft | 378 kts | 351° |
| 2026-05-05 01:33 | 29.37529 | -81.45536 | 19565 ft | 380 kts | 351° |
| 2026-05-05 01:33 | 29.40172 | -81.45788 | 20132 ft | 382 kts | 350° |
| 2026-05-05 01:33 | 29.42834 | -81.46042 | 20703 ft | 384 kts | 350° |
| 2026-05-05 01:34 | 29.45507 | -81.46297 | 21270 ft | 387 kts | 350° |
| 2026-05-05 01:34 | 29.48195 | -81.46554 | 21810 ft | 389 kts | 350° |
| 2026-05-05 01:34 | 29.50905 | -81.46813 | 22372 ft | 392 kts | 349° |
| 2026-05-05 01:34 | 29.53632 | -81.47074 | 22903 ft | 394 kts | 349° |
| 2026-05-05 01:35 | 29.56377 | -81.47336 | 23429 ft | 397 kts | 349° |
| 2026-05-05 01:35 | 29.59137 | -81.47589 | 23897 ft | 400 kts | 349° |
| 2026-05-05 01:35 | 29.61918 | -81.47841 | 24321 ft | 402 kts | 349° |
| 2026-05-05 01:35 | 29.64712 | -81.48095 | 24747 ft | 404 kts | 349° |
| 2026-05-05 01:36 | 29.67529 | -81.48350 | 25179 ft | 406 kts | 349° |
| 2026-05-05 01:36 | 29.70352 | -81.48607 | 25589 ft | 409 kts | 349° |
| 2026-05-05 01:36 | 29.73197 | -81.48866 | 25993 ft | 411 kts | 349° |
| 2026-05-05 01:36 | 29.76055 | -81.49126 | 26416 ft | 413 kts | 348° |
| 2026-05-05 01:37 | 29.78927 | -81.49388 | 26807 ft | 416 kts | 348° |
| 2026-05-05 01:37 | 29.81820 | -81.49652 | 27195 ft | 418 kts | 348° |
| 2026-05-05 01:37 | 29.84728 | -81.49917 | 27578 ft | 420 kts | 348° |
| 2026-05-05 01:37 | 29.87614 | -81.50181 | 27961 ft | 422 kts | 347° |
| 2026-05-05 01:38 | 29.90489 | -81.50841 | 28317 ft | 412 kts | 334° |
| 2026-05-05 01:38 | 29.93199 | -81.51825 | 28628 ft | 416 kts | 335° |
| 2026-05-05 01:38 | 29.95974 | -81.52797 | 29012 ft | 418 kts | 335° |
| 2026-05-05 01:38 | 29.98756 | -81.53786 | 29396 ft | 419 kts | 335° |
| 2026-05-05 01:39 | 30.01552 | -81.54783 | 29754 ft | 421 kts | 335° |
| 2026-05-05 01:39 | 30.04358 | -81.55786 | 30115 ft | 423 kts | 334° |
| 2026-05-05 01:39 | 30.07180 | -81.56795 | 30434 ft | 425 kts | 335° |
| 2026-05-05 01:39 | 30.10001 | -81.57804 | 30773 ft | 425 kts | 335° |
| 2026-05-05 01:40 | 30.12832 | -81.58818 | 31058 ft | 426 kts | 335° |
| 2026-05-05 01:40 | 30.15657 | -81.59831 | 31109 ft | 423 kts | 335° |
| 2026-05-05 01:40 | 30.21258 | -81.61840 | 31105 ft | 421 kts | 334° |
| 2026-05-05 01:41 | 30.26817 | -81.63837 | 31105 ft | 420 kts | 334° |
| 2026-05-05 01:41 | 30.32398 | -81.65844 | 31105 ft | 421 kts | 334° |
| 2026-05-05 01:42 | 30.38066 | -81.67885 | 31094 ft | 431 kts | 335° |
| 2026-05-05 01:42 | 30.43796 | -81.69950 | 31092 ft | 431 kts | 335° |
| 2026-05-05 01:43 | 30.49532 | -81.72021 | 31084 ft | 431 kts | 335° |
| 2026-05-05 01:43 | 30.55214 | -81.74074 | 31093 ft | 431 kts | 335° |
| 2026-05-05 01:44 | 30.60937 | -81.76144 | 31098 ft | 431 kts | 335° |
| 2026-05-05 01:44 | 30.66899 | -81.77551 | 31093 ft | 439 kts | 342° |
| 2026-05-05 01:45 | 30.72924 | -81.78762 | 31088 ft | 439 kts | 342° |
| 2026-05-05 01:45 | 30.78921 | -81.79962 | 31084 ft | 439 kts | 342° |
| 2026-05-05 01:46 | 30.84946 | -81.81170 | 31086 ft | 440 kts | 342° |
| 2026-05-05 01:46 | 30.90983 | -81.82381 | 31080 ft | 440 kts | 342° |
| 2026-05-05 01:47 | 30.97025 | -81.83595 | 31080 ft | 440 kts | 342° |
| 2026-05-05 01:47 | 31.03078 | -81.84812 | 31084 ft | 440 kts | 343° |
| 2026-05-05 01:48 | 31.09091 | -81.86024 | 31085 ft | 441 kts | 343° |
| 2026-05-05 01:48 | 31.15155 | -81.87247 | 31085 ft | 442 kts | 343° |
| 2026-05-05 01:49 | 31.21218 | -81.88471 | 31086 ft | 443 kts | 343° |
| 2026-05-05 01:49 | 31.27305 | -81.89702 | 31094 ft | 443 kts | 343° |
| 2026-05-05 01:50 | 31.33353 | -81.90926 | 31105 ft | 444 kts | 343° |
| 2026-05-05 01:50 | 31.39442 | -81.92161 | 31110 ft | 444 kts | 343° |
| 2026-05-05 01:51 | 31.45550 | -81.93401 | 31120 ft | 445 kts | 343° |
| 2026-05-05 01:51 | 31.51659 | -81.94643 | 31122 ft | 446 kts | 344° |
| 2026-05-05 01:52 | 31.57782 | -81.95889 | 31124 ft | 446 kts | 344° |
| 2026-05-05 01:52 | 31.63872 | -81.97130 | 31117 ft | 446 kts | 344° |
| 2026-05-05 01:53 | 31.70005 | -81.98382 | 31112 ft | 447 kts | 344° |
| 2026-05-05 01:53 | 31.76142 | -81.99636 | 31104 ft | 448 kts | 344° |
| 2026-05-05 01:54 | 31.82263 | -82.00888 | 31084 ft | 449 kts | 344° |
| 2026-05-05 01:54 | 31.88325 | -82.02489 | 31090 ft | 440 kts | 333° |
| 2026-05-05 01:55 | 31.94099 | -82.05042 | 31095 ft | 443 kts | 334° |
| 2026-05-05 01:55 | 31.99889 | -82.07576 | 31091 ft | 443 kts | 334° |
| 2026-05-05 01:56 | 32.05632 | -82.10096 | 31097 ft | 443 kts | 334° |
| 2026-05-05 01:56 | 32.11430 | -82.12643 | 31098 ft | 446 kts | 334° |
| 2026-05-05 01:57 | 32.17297 | -82.15224 | 31090 ft | 450 kts | 335° |
| 2026-05-05 01:57 | 32.22182 | -82.17376 | 31085 ft | 450 kts | 335° |
| 2026-05-05 01:58 | 32.28068 | -82.19972 | 31083 ft | 451 kts | 335° |
| 2026-05-05 01:58 | 32.33945 | -82.22568 | 31086 ft | 451 kts | 335° |
| 2026-05-05 01:59 | 32.36901 | -82.23875 | 31279 ft | 452 kts | 335° |
| 2026-05-05 01:59 | 32.39843 | -82.25176 | 31713 ft | 450 kts | 334° |
| 2026-05-05 01:59 | 32.42767 | -82.26471 | 32048 ft | 449 kts | 334° |
| 2026-05-05 01:59 | 32.45658 | -82.27751 | 32101 ft | 447 kts | 334° |
| 2026-05-05 02:00 | 32.51483 | -82.30335 | 32081 ft | 445 kts | 334° |
| 2026-05-05 02:00 | 32.57302 | -82.32919 | 32075 ft | 446 kts | 334° |
| 2026-05-05 02:01 | 32.63093 | -82.35494 | 32062 ft | 446 kts | 334° |
| 2026-05-05 02:01 | 32.68925 | -82.38092 | 32061 ft | 447 kts | 334° |
| 2026-05-05 02:02 | 32.74720 | -82.40676 | 32058 ft | 448 kts | 334° |
| 2026-05-05 02:02 | 32.80568 | -82.43288 | 32061 ft | 448 kts | 335° |
| 2026-05-05 02:03 | 32.86415 | -82.45903 | 32054 ft | 449 kts | 335° |
| 2026-05-05 02:03 | 32.92267 | -82.48524 | 32058 ft | 449 kts | 335° |
| 2026-05-05 02:04 | 32.98087 | -82.51134 | 32054 ft | 449 kts | 335° |
| 2026-05-05 02:04 | 33.03942 | -82.53764 | 32050 ft | 450 kts | 335° |
| 2026-05-05 02:05 | 33.09805 | -82.56401 | 32053 ft | 450 kts | 335° |
| 2026-05-05 02:05 | 33.15642 | -82.59029 | 32059 ft | 450 kts | 335° |
| 2026-05-05 02:06 | 33.21515 | -82.61679 | 32068 ft | 451 kts | 335° |
| 2026-05-05 02:06 | 33.27390 | -82.64333 | 32077 ft | 451 kts | 335° |
| 2026-05-05 02:07 | 33.33236 | -82.66976 | 32083 ft | 451 kts | 335° |
| 2026-05-05 02:07 | 33.39089 | -82.69628 | 32091 ft | 442 kts | 335° |
| 2026-05-05 02:08 | 33.44768 | -82.72205 | 32099 ft | 433 kts | 335° |
| 2026-05-05 02:08 | 33.50402 | -82.74764 | 32095 ft | 433 kts | 335° |
| 2026-05-05 02:09 | 33.56011 | -82.77316 | 32090 ft | 433 kts | 335° |
| 2026-05-05 02:09 | 33.61649 | -82.79884 | 32073 ft | 433 kts | 335° |
| 2026-05-05 02:10 | 33.67278 | -82.82452 | 32071 ft | 432 kts | 335° |
| 2026-05-05 02:10 | 33.72904 | -82.85022 | 32076 ft | 433 kts | 335° |
| 2026-05-05 02:11 | 33.78498 | -82.87581 | 32074 ft | 432 kts | 335° |
| 2026-05-05 02:11 | 33.84135 | -82.90163 | 32072 ft | 432 kts | 335° |
| 2026-05-05 02:12 | 33.92544 | -82.94022 | 32066 ft | 433 kts | 335° |
| 2026-05-05 02:12 | 33.95322 | -82.95299 | 31920 ft | 421 kts | 335° |
| 2026-05-05 02:13 | 33.98040 | -82.96548 | 31629 ft | 413 kts | 335° |
| 2026-05-05 02:13 | 34.00702 | -82.97773 | 31303 ft | 406 kts | 335° |
| 2026-05-05 02:13 | 34.03322 | -82.98980 | 30957 ft | 400 kts | 335° |
| 2026-05-05 02:13 | 34.05918 | -83.00177 | 30468 ft | 398 kts | 335° |
| 2026-05-05 02:14 | 34.08501 | -83.01368 | 30008 ft | 396 kts | 335° |
| 2026-05-05 02:14 | 34.11040 | -83.02539 | 29496 ft | 394 kts | 335° |
| 2026-05-05 02:14 | 34.13589 | -83.03716 | 28976 ft | 392 kts | 335° |
| 2026-05-05 02:14 | 34.16152 | -83.04900 | 28213 ft | 396 kts | 335° |
| 2026-05-05 02:15 | 34.18718 | -83.06087 | 27855 ft | 390 kts | 335° |
| 2026-05-05 02:15 | 34.21233 | -83.07250 | 27534 ft | 384 kts | 335° |
| 2026-05-05 02:15 | 34.23717 | -83.08400 | 27186 ft | 379 kts | 335° |
| 2026-05-05 02:15 | 34.26178 | -83.09540 | 26741 ft | 378 kts | 335° |
| 2026-05-05 02:16 | 34.28623 | -83.10673 | 26337 ft | 375 kts | 335° |
| 2026-05-05 02:16 | 34.31054 | -83.11800 | 25928 ft | 373 kts | 335° |
| 2026-05-05 02:16 | 34.33440 | -83.12908 | 25533 ft | 371 kts | 335° |
| 2026-05-05 02:16 | 34.35851 | -83.14027 | 25150 ft | 369 kts | 335° |
| 2026-05-05 02:17 | 34.38251 | -83.15142 | 24768 ft | 367 kts | 335° |
| 2026-05-05 02:17 | 34.40638 | -83.16252 | 24387 ft | 365 kts | 335° |
| 2026-05-05 02:17 | 34.43006 | -83.17353 | 24027 ft | 364 kts | 335° |
| 2026-05-05 02:17 | 34.45361 | -83.18450 | 23657 ft | 362 kts | 335° |
| 2026-05-05 02:18 | 34.47716 | -83.19546 | 23221 ft | 360 kts | 335° |
| 2026-05-05 02:18 | 34.50020 | -83.20620 | 22823 ft | 358 kts | 335° |
| 2026-05-05 02:18 | 34.52342 | -83.21702 | 22435 ft | 356 kts | 335° |
| 2026-05-05 02:18 | 34.54654 | -83.22781 | 22045 ft | 354 kts | 335° |
| 2026-05-05 02:19 | 34.56947 | -83.23852 | 21646 ft | 352 kts | 335° |
| 2026-05-05 02:19 | 34.59235 | -83.24920 | 21255 ft | 351 kts | 335° |
| 2026-05-05 02:19 | 34.61509 | -83.25982 | 20875 ft | 349 kts | 335° |
| 2026-05-05 02:19 | 34.63773 | -83.27041 | 20493 ft | 347 kts | 335° |
| 2026-05-05 02:20 | 34.66023 | -83.28094 | 20123 ft | 346 kts | 335° |
| 2026-05-05 02:20 | 34.68264 | -83.29142 | 19748 ft | 344 kts | 335° |
| 2026-05-05 02:20 | 34.70435 | -83.30320 | 19375 ft | 339 kts | 328° |
| 2026-05-05 02:20 | 34.72497 | -83.31638 | 19017 ft | 338 kts | 329° |
| 2026-05-05 02:21 | 34.74592 | -83.32953 | 18671 ft | 337 kts | 329° |
| 2026-05-05 02:21 | 34.76673 | -83.34246 | 18303 ft | 336 kts | 329° |
| 2026-05-05 02:21 | 34.78752 | -83.35532 | 17904 ft | 334 kts | 329° |
| 2026-05-05 02:21 | 34.80821 | -83.36806 | 17544 ft | 332 kts | 329° |
| 2026-05-05 02:22 | 34.82879 | -83.38075 | 17132 ft | 331 kts | 329° |
| 2026-05-05 02:22 | 34.84929 | -83.39338 | 16760 ft | 329 kts | 329° |
| 2026-05-05 02:22 | 34.86967 | -83.40595 | 16391 ft | 328 kts | 329° |
| 2026-05-05 02:22 | 34.88997 | -83.41846 | 16031 ft | 327 kts | 329° |
| 2026-05-05 02:23 | 34.91023 | -83.43096 | 15665 ft | 325 kts | 330° |
| 2026-05-05 02:23 | 34.93037 | -83.44340 | 15295 ft | 324 kts | 329° |
| 2026-05-05 02:23 | 34.95048 | -83.45583 | 14942 ft | 323 kts | 330° |
| 2026-05-05 02:23 | 34.97055 | -83.46823 | 14590 ft | 322 kts | 330° |
| 2026-05-05 02:24 | 34.99029 | -83.48044 | 14232 ft | 320 kts | 329° |
| 2026-05-05 02:24 | 35.01022 | -83.49278 | 13879 ft | 321 kts | 330° |
| 2026-05-05 02:24 | 35.02997 | -83.50501 | 13584 ft | 318 kts | 330° |
| 2026-05-05 02:24 | 35.04967 | -83.51721 | 13226 ft | 316 kts | 330° |
| 2026-05-05 02:25 | 35.06929 | -83.52936 | 12806 ft | 316 kts | 330° |
| 2026-05-05 02:25 | 35.08885 | -83.54150 | 12471 ft | 313 kts | 330° |
| 2026-05-05 02:25 | 35.10829 | -83.55356 | 12138 ft | 312 kts | 330° |
| 2026-05-05 02:25 | 35.12737 | -83.56541 | 11793 ft | 312 kts | 330° |
| 2026-05-05 02:26 | 35.14659 | -83.57735 | 11467 ft | 309 kts | 329° |
| 2026-05-05 02:26 | 35.16577 | -83.58927 | 11197 ft | 307 kts | 330° |
| 2026-05-05 02:26 | 35.18484 | -83.60114 | 11099 ft | 307 kts | 329° |
| 2026-05-05 02:26 | 35.20392 | -83.61298 | 11048 ft | 307 kts | 330° |
| 2026-05-05 02:27 | 35.22302 | -83.62475 | 11055 ft | 308 kts | 331° |
| 2026-05-05 02:27 | 35.24261 | -83.63551 | 11088 ft | 308 kts | 332° |
| 2026-05-05 02:27 | 35.26156 | -83.64772 | 11082 ft | 307 kts | 328° |
| 2026-05-05 02:27 | 35.28022 | -83.65988 | 11069 ft | 307 kts | 329° |
| 2026-05-05 02:28 | 35.29919 | -83.67202 | 11077 ft | 308 kts | 329° |
| 2026-05-05 02:28 | 35.31830 | -83.68413 | 11106 ft | 308 kts | 329° |
| 2026-05-05 02:28 | 35.33736 | -83.69612 | 11034 ft | 308 kts | 329° |
| 2026-05-05 02:28 | 35.35644 | -83.70808 | 11046 ft | 308 kts | 329° |
| 2026-05-05 02:29 | 35.37553 | -83.72003 | 11087 ft | 308 kts | 329° |
| 2026-05-05 02:29 | 35.39467 | -83.73201 | 11071 ft | 308 kts | 329° |
| 2026-05-05 02:29 | 35.41375 | -83.74395 | 11030 ft | 308 kts | 329° |
| 2026-05-05 02:29 | 35.43286 | -83.75592 | 10704 ft | 307 kts | 329° |
| 2026-05-05 02:30 | 35.45153 | -83.76762 | 10485 ft | 303 kts | 329° |
| 2026-05-05 02:30 | 35.47023 | -83.77933 | 10232 ft | 300 kts | 329° |
| 2026-05-05 02:30 | 35.48872 | -83.79093 | 9979 ft | 296 kts | 329° |
| 2026-05-05 02:30 | 35.50700 | -83.80238 | 9747 ft | 294 kts | 329° |
| 2026-05-05 02:31 | 35.52521 | -83.81383 | 9463 ft | 292 kts | 329° |
| 2026-05-05 02:31 | 35.54312 | -83.82508 | 9228 ft | 288 kts | 328° |
| 2026-05-05 02:31 | 35.56089 | -83.83624 | 8974 ft | 285 kts | 329° |
| 2026-05-05 02:31 | 35.57848 | -83.84731 | 8696 ft | 283 kts | 328° |
| 2026-05-05 02:32 | 35.59595 | -83.85829 | 8442 ft | 281 kts | 328° |
| 2026-05-05 02:32 | 35.61317 | -83.86913 | 8193 ft | 280 kts | 328° |
| 2026-05-05 02:32 | 35.63049 | -83.88003 | 7935 ft | 279 kts | 328° |
| 2026-05-05 02:32 | 35.64779 | -83.89092 | 7676 ft | 278 kts | 328° |
| 2026-05-05 02:33 | 35.66509 | -83.90182 | 7453 ft | 278 kts | 328° |
| 2026-05-05 02:33 | 35.68210 | -83.91255 | 7216 ft | 277 kts | 328° |
| 2026-05-05 02:33 | 35.69924 | -83.92338 | 7040 ft | 275 kts | 328° |
| 2026-05-05 02:33 | 35.71628 | -83.93414 | 7002 ft | 275 kts | 328° |
| 2026-05-05 02:34 | 35.73311 | -83.94476 | 6983 ft | 267 kts | 328° |
| 2026-05-05 02:34 | 35.74851 | -83.95616 | 7014 ft | 253 kts | 323° |
| 2026-05-05 02:34 | 35.76526 | -83.96317 | 6977 ft | 260 kts | 352° |
| 2026-05-05 02:34 | 35.78317 | -83.95941 | 6962 ft | 266 kts | 22° |
| 2026-05-05 02:35 | 35.79943 | -83.94805 | 7026 ft | 270 kts | 32° |
| 2026-05-05 02:35 | 35.81492 | -83.93531 | 7022 ft | 271 kts | 32° |
| 2026-05-05 02:35 | 35.83063 | -83.92246 | 6994 ft | 271 kts | 32° |
| 2026-05-05 02:35 | 35.84640 | -83.90961 | 7001 ft | 273 kts | 32° |
| 2026-05-05 02:36 | 35.86216 | -83.89677 | 7059 ft | 270 kts | 32° |
| 2026-05-05 02:36 | 35.87805 | -83.88420 | 6979 ft | 271 kts | 31° |
| 2026-05-05 02:36 | 35.89353 | -83.87154 | 6837 ft | 270 kts | 32° |
| 2026-05-05 02:36 | 35.90916 | -83.85872 | 6691 ft | 269 kts | 32° |
| 2026-05-05 02:37 | 35.92480 | -83.84594 | 6538 ft | 269 kts | 32° |
| 2026-05-05 02:37 | 35.94045 | -83.83317 | 6382 ft | 269 kts | 32° |
| 2026-05-05 02:37 | 35.95595 | -83.82025 | 6237 ft | 269 kts | 38° |
| 2026-05-05 02:37 | 35.96954 | -83.80437 | 6054 ft | 268 kts | 46° |
| 2026-05-05 02:38 | 35.98242 | -83.78775 | 5891 ft | 268 kts | 46° |
| 2026-05-05 02:38 | 35.99530 | -83.77115 | 5730 ft | 267 kts | 47° |
| 2026-05-05 02:38 | 36.00541 | -83.75229 | 5527 ft | 260 kts | 78° |
| 2026-05-05 02:38 | 36.00475 | -83.73135 | 5474 ft | 243 kts | 120° |
| 2026-05-05 02:39 | 35.99425 | -83.71630 | 5527 ft | 228 kts | 155° |
| 2026-05-05 02:39 | 35.97946 | -83.71119 | 5520 ft | 219 kts | 186° |
| 2026-05-05 02:39 | 35.96539 | -83.71676 | 5466 ft | 214 kts | 216° |
| 2026-05-05 02:39 | 35.95629 | -83.73112 | 5357 ft | 217 kts | 247° |
| 2026-05-05 02:40 | 35.95498 | -83.74985 | 5185 ft | 225 kts | 274° |
| 2026-05-05 02:40 | 35.95851 | -83.76888 | 5096 ft | 229 kts | 277° |
| 2026-05-05 02:40 | 35.96224 | -83.78794 | 4923 ft | 226 kts | 270° |
| 2026-05-05 02:40 | 35.96024 | -83.80648 | 4668 ft | 215 kts | 244° |
| 2026-05-05 02:41 | 35.95276 | -83.82214 | 4481 ft | 206 kts | 229° |
| 2026-05-05 02:41 | 35.94380 | -83.83445 | 4297 ft | 182 kts | 224° |
| 2026-05-05 02:41 | 35.93531 | -83.84498 | 4055 ft | 168 kts | 223° |
| 2026-05-05 02:41 | 35.92708 | -83.85511 | 3846 ft | 167 kts | 223° |
| 2026-05-05 02:42 | 35.91882 | -83.86523 | 3646 ft | 166 kts | 223° |
| 2026-05-05 02:42 | 35.91057 | -83.87528 | 3437 ft | 166 kts | 223° |
| 2026-05-05 02:42 | 35.90242 | -83.88533 | 3214 ft | 166 kts | 223° |
| 2026-05-05 02:42 | 35.89424 | -83.89543 | 2987 ft | 166 kts | 223° |
| 2026-05-05 02:43 | 35.88609 | -83.90544 | 2795 ft | 159 kts | 223° |
| 2026-05-05 02:43 | 35.87873 | -83.91445 | 2594 ft | 139 kts | 223° |
| 2026-05-05 02:43 | 35.87219 | -83.92242 | 2436 ft | 130 kts | 223° |
| 2026-05-05 02:43 | 35.86583 | -83.93017 | 2238 ft | 127 kts | 223° |
| 2026-05-05 02:44 | 35.85953 | -83.93779 | 2076 ft | 131 kts | 221° |
| 2026-05-05 02:44 | 35.85297 | -83.94590 | 1867 ft | 137 kts | 224° |
| 2026-05-05 02:44 | 35.84608 | -83.95446 | 1636 ft | 143 kts | 225° |
| 2026-05-05 02:44 | 35.84140 | -83.96035 | 1542 ft | 147 kts | 223° |
| 2026-05-05 02:45 | 35.83176 | -83.97219 | 1304 ft | 146 kts | 223° |
| 2026-05-05 02:45 | 35.82470 | -83.98063 | 1069 ft | 138 kts | 224° |
| 2026-05-05 02:45 | 35.82013 | -83.98617 | 994 ft | 137 kts | 224° |
| 2026-05-05 02:45 | 35.81464 | -83.99288 | 968 ft | 75 kts | 225° |
| 2026-05-05 02:46 | 35.81245 | -83.99554 | 965 ft | 23 kts | 224° |